VTCC/CNX METAR and TAF weather

Enter ICAO airport designator
Station Type Date Time Source
VTCC METAR 2021/07/30 07:30 UTC NOAA

VTCC 300730Z 24006KT 190V310 9999 SCT035 33/22 Q1005 NOSIG


Station Type Date Time Source
VTCC Decoded METAR 2021/07/30 07:30 UTC NOAA

Chiang Mai, Thailand (VTCC) 18-47N 098-59E 314M
Jul 30, 2021 - 03:30 AM EDT / 2021.07.30 0730 UTC
Wind: from the WSW (240 degrees) at 7 MPH (6 KT) (direction variable):0
Visibility: greater than 7 mile(s):0
Sky conditions: partly cloudy
Temperature: 91 F (33 C)
Heat index: 97.5 F (36.4 C):1
Dew Point: 71 F (22 C)
Relative Humidity: 52%
Pressure (altimeter): 29.68 in. Hg (1005 hPa)
ob: VTCC 300730Z 24006KT 190V310 9999 SCT035 33/22 Q1005 NOSIG
cycle: 7

Station Type Date Time Source
VTCC TAF 2021/07/30 06:39 UTC NOAA

TAF VTCC 300500Z 3006/3112 20005KT 9999 SCT035
TEMPO 3006/3012 22015G25KT 4000 TSRA FEW025CB BKN035
BECMG 3018/3020 34005KT
BECMG 3101/3103 18005KT

Example: see airport list